createdAt,value
2022-10-26T00:01:21.669Z,9.00
2022-10-26T00:03:49.393Z,8.90
2022-10-26T00:06:20.936Z,8.82
2022-10-26T00:08:49.519Z,9.07
2022-10-26T00:11:18.440Z,8.65
2022-10-26T00:13:47.448Z,8.15
2022-10-26T00:16:22.419Z,7.88
2022-10-26T00:18:50.820Z,7.72
2022-10-26T00:21:19.562Z,7.80
2022-10-26T00:23:46.998Z,7.65
2022-10-26T00:26:14.746Z,7.47
2022-10-26T00:28:42.284Z,8.30
2022-10-26T00:31:14.867Z,7.20
2022-10-26T00:33:42.481Z,7.63
2022-10-26T00:36:10.639Z,7.30
2022-10-26T00:38:38.630Z,7.15
2022-10-26T00:41:06.582Z,7.18
2022-10-26T00:43:34.697Z,7.00
2022-10-26T00:46:05.747Z,6.82
2022-10-26T00:48:42.561Z,7.15
2022-10-26T00:51:20.274Z,7.22
2022-10-26T00:53:47.968Z,7.40
2022-10-26T00:56:16.850Z,8.10
2022-10-26T00:58:45.119Z,8.27
2022-10-26T01:01:12.864Z,8.35
2022-10-26T01:03:40.515Z,9.48
2022-10-26T01:06:09.819Z,9.32
2022-10-26T01:08:37.744Z,9.38
2022-10-26T01:11:06.486Z,9.05
2022-10-26T01:13:47.065Z,9.32
2022-10-26T01:16:42.675Z,11.48
2022-10-26T01:19:52.053Z,10.77
2022-10-26T01:22:54.882Z,10.98
2022-10-26T01:25:46.149Z,12.43
2022-10-26T01:29:07.575Z,10.00
2022-10-26T01:32:01.019Z,10.90
2022-10-26T01:34:41.707Z,10.40
2022-10-26T01:37:24.084Z,9.90
2022-10-26T01:40:09.482Z,9.45
2022-10-26T01:42:41.527Z,9.43
2022-10-26T01:45:12.449Z,10.05
2022-10-26T01:47:41.634Z,9.40
2022-10-26T01:50:10.971Z,9.52
2022-10-26T01:52:38.640Z,10.02
2022-10-26T01:55:46.279Z,10.02
2022-10-26T01:58:30.271Z,9.18
2022-10-26T02:01:35.090Z,10.45
2022-10-26T02:04:16.515Z,10.80
2022-10-26T02:07:15.625Z,12.20
2022-10-26T02:09:57.299Z,13.50
2022-10-26T02:13:04.314Z,11.45
2022-10-26T02:15:35.996Z,10.63
2022-10-26T02:18:33.952Z,10.23
2022-10-26T02:21:09.983Z,10.27
2022-10-26T02:23:41.617Z,11.57
2022-10-26T02:26:12.304Z,10.85
2022-10-26T02:28:45.585Z,10.75
2022-10-26T02:31:16.299Z,12.50
2022-10-26T02:33:53.927Z,10.80
2022-10-26T02:36:30.136Z,11.60
2022-10-26T02:38:59.433Z,9.98
2022-10-26T02:41:29.589Z,10.60
2022-10-26T02:44:40.170Z,11.23
2022-10-26T02:47:07.675Z,11.20
2022-10-26T02:49:35.487Z,12.45
2022-10-26T02:52:15.808Z,12.25
2022-10-26T02:54:58.199Z,10.88
2022-10-26T02:57:41.843Z,12.15
2022-10-26T03:00:16.550Z,12.60
2022-10-26T03:02:48.506Z,11.32
2022-10-26T03:05:22.773Z,12.05
2022-10-26T03:07:50.224Z,11.65
2022-10-26T03:10:17.987Z,10.98
2022-10-26T03:12:46.027Z,11.23
2022-10-26T03:15:14.103Z,10.25
2022-10-26T03:17:41.593Z,10.77
2022-10-26T03:20:10.008Z,9.57
2022-10-26T03:22:37.400Z,9.90
2022-10-26T03:25:05.487Z,10.80
2022-10-26T03:27:32.882Z,11.90
2022-10-26T03:30:00.286Z,10.73
2022-10-26T03:32:27.748Z,12.93
2022-10-26T03:34:55.212Z,11.30
2022-10-26T03:37:22.635Z,10.68
2022-10-26T03:39:51.046Z,9.00
2022-10-26T03:42:18.562Z,10.27
2022-10-26T03:44:47.413Z,8.38
2022-10-26T03:47:14.860Z,8.85
2022-10-26T03:49:42.303Z,7.80
2022-10-26T03:52:09.831Z,9.52
2022-10-26T03:54:37.398Z,9.40
2022-10-26T03:57:04.972Z,8.98
2022-10-26T03:59:32.484Z,10.48
2022-10-26T04:02:00.046Z,11.00
2022-10-26T04:04:27.636Z,9.85
2022-10-26T04:06:55.123Z,8.88
2022-10-26T04:09:22.854Z,8.43
2022-10-26T04:11:53.229Z,8.70
2022-10-26T04:14:20.809Z,7.88
2022-10-26T04:16:48.347Z,8.32
2022-10-26T04:19:16.491Z,7.78
2022-10-26T04:21:44.051Z,7.88
2022-10-26T04:24:11.951Z,7.18
2022-10-26T04:26:39.498Z,7.63
2022-10-26T04:29:12.048Z,7.70
2022-10-26T04:31:39.829Z,8.13
2022-10-26T04:34:07.352Z,8.73
2022-10-26T04:36:35.247Z,9.18
2022-10-26T04:53:46.910Z,8.15
2022-10-26T04:56:14.503Z,6.68
2022-10-26T04:58:42.346Z,7.88
2022-10-26T05:01:10.044Z,7.38
2022-10-26T05:03:42.850Z,8.25
2022-10-26T05:06:13.260Z,7.47
2022-10-26T05:08:40.741Z,6.90
2022-10-26T05:11:08.187Z,6.93
2022-10-26T05:13:35.643Z,7.00
2022-10-26T05:16:03.254Z,7.38
2022-10-26T05:18:30.782Z,6.80
2022-10-26T05:20:58.246Z,7.70
2022-10-26T05:23:26.212Z,8.13
2022-10-26T05:25:55.439Z,8.18
2022-10-26T05:28:23.509Z,8.77
2022-10-26T05:31:06.622Z,8.13
2022-10-26T05:33:37.774Z,8.10
2022-10-26T05:36:06.205Z,8.40
2022-10-26T05:38:33.997Z,7.55
2022-10-26T05:41:01.983Z,9.73
2022-10-26T05:43:30.486Z,8.52
2022-10-26T05:45:57.971Z,8.63
2022-10-26T05:48:25.605Z,7.65
2022-10-26T05:51:02.208Z,7.18
2022-10-26T05:53:30.047Z,6.75
2022-10-26T05:55:58.210Z,6.57
2022-10-26T05:58:26.276Z,6.80
2022-10-26T06:04:27.987Z,7.45
2022-10-26T06:06:56.516Z,6.28
2022-10-26T06:09:24.601Z,6.53
2022-10-26T06:11:59.387Z,6.80
2022-10-26T06:14:27.182Z,5.88
2022-10-26T06:17:16.422Z,7.13
2022-10-26T06:20:28.400Z,6.75
2022-10-26T06:23:52.257Z,6.80
2022-10-26T06:26:54.002Z,7.03
2022-10-26T06:30:02.593Z,6.80
2022-10-26T06:32:30.857Z,6.68
2022-10-26T06:35:29.442Z,6.57
2022-10-26T06:38:01.051Z,7.03
2022-10-26T06:40:34.790Z,7.25
2022-10-26T06:43:02.527Z,6.93
2022-10-26T06:45:30.472Z,6.10
2022-10-26T06:48:11.346Z,6.47
2022-10-26T06:50:51.480Z,6.72
2022-10-26T06:53:31.601Z,6.93
2022-10-26T06:56:02.953Z,7.00
2022-10-26T06:58:35.715Z,7.43
2022-10-26T07:01:03.513Z,6.82
2022-10-26T07:03:31.376Z,6.55
2022-10-26T07:05:59.044Z,7.22
2022-10-26T07:08:26.644Z,6.60
2022-10-26T07:10:54.262Z,6.30
2022-10-26T07:16:13.498Z,6.55
2022-10-26T07:19:29.595Z,6.50
2022-10-26T07:22:02.420Z,7.45
2022-10-26T09:02:42.434Z,10.75
2022-10-26T09:05:33.425Z,10.27
2022-10-26T09:08:24.491Z,9.30
2022-10-26T09:11:24.468Z,11.25
2022-10-26T09:14:17.707Z,10.07
2022-10-26T09:17:05.654Z,9.38
2022-10-26T09:20:18.108Z,9.90
2022-10-26T09:22:57.613Z,11.02
2022-10-26T09:25:30.191Z,10.57
2022-10-26T09:28:03.133Z,11.50
2022-10-26T09:30:31.013Z,11.68
2022-10-26T09:33:12.679Z,12.20
2022-10-26T09:36:01.835Z,11.60
2022-10-26T09:38:53.070Z,11.95
2022-10-26T09:41:45.148Z,11.30
2022-10-26T09:44:37.184Z,10.88
2022-10-26T09:47:40.032Z,12.63
2022-10-26T09:50:10.743Z,12.73
2022-10-26T09:52:38.597Z,12.93
2022-10-26T09:55:07.152Z,13.43
2022-10-26T09:57:35.791Z,13.38
2022-10-26T10:00:03.999Z,13.95
2022-10-26T10:02:44.063Z,13.50
2022-10-26T10:05:52.525Z,14.32
2022-10-26T10:08:26.137Z,13.07
2022-10-26T10:11:15.501Z,13.82
2022-10-26T10:13:46.839Z,12.70
2022-10-26T10:16:23.778Z,13.13
2022-10-26T10:18:59.158Z,12.82
2022-10-26T10:21:49.479Z,13.07
2022-10-26T10:24:41.808Z,14.02
2022-10-26T10:27:17.541Z,13.15
2022-10-26T10:29:51.226Z,12.32
2022-10-26T10:32:27.898Z,16.73
2022-10-26T10:35:23.814Z,13.02
2022-10-26T10:37:52.637Z,13.40
2022-10-26T10:40:30.982Z,12.95
2022-10-26T10:43:15.589Z,12.77
2022-10-26T10:48:29.520Z,13.30
2022-10-26T10:51:15.605Z,12.88
2022-10-26T10:53:49.600Z,13.57
2022-10-26T10:56:42.275Z,13.35
2022-10-26T10:59:16.267Z,14.68
2022-10-26T11:01:55.213Z,12.43
2022-10-26T11:05:02.228Z,13.25
2022-10-26T11:07:35.567Z,13.88
2022-10-26T11:10:04.995Z,12.63
2022-10-26T11:12:42.528Z,12.55
2022-10-26T11:15:19.077Z,12.88
2022-10-26T11:18:10.382Z,13.63
2022-10-26T11:20:45.961Z,13.70
2022-10-26T11:23:16.546Z,13.00
2022-10-26T11:25:56.892Z,12.98
2022-10-26T11:28:54.182Z,14.10
2022-10-26T11:31:29.822Z,15.10
2022-10-26T11:34:36.096Z,14.48
2022-10-26T11:37:13.846Z,14.35
2022-10-26T11:40:30.514Z,14.25
2022-10-26T11:43:40.207Z,13.88
2022-10-26T11:46:19.254Z,14.98
2022-10-26T11:49:01.700Z,14.73
2022-10-26T11:52:08.832Z,14.05
2022-10-26T11:54:45.124Z,13.27
2022-10-26T11:57:14.246Z,14.23
2022-10-26T11:59:53.566Z,15.70
2022-10-26T12:02:27.660Z,22.38
2022-10-26T12:07:40.425Z,15.35
2022-10-26T12:10:33.495Z,14.95
2022-10-26T12:14:05.380Z,15.20
2022-10-26T12:17:09.358Z,16.05
2022-10-26T12:20:05.648Z,20.85
2022-10-26T12:22:43.736Z,19.15
2022-10-26T12:25:15.363Z,17.98
2022-10-26T12:27:45.519Z,17.95
2022-10-26T12:30:12.936Z,17.02
2022-10-26T12:32:48.519Z,15.77
2022-10-26T12:35:38.738Z,17.70
2022-10-26T12:38:26.167Z,16.10
2022-10-26T12:41:09.087Z,17.23
2022-10-26T12:43:42.454Z,16.60
2022-10-26T13:31:31.878Z,14.15
2022-10-26T13:34:21.361Z,17.38
2022-10-26T13:37:20.461Z,16.50
2022-10-26T13:39:50.442Z,14.38
2022-10-26T13:42:30.288Z,14.48
2022-10-26T13:45:07.927Z,15.68
2022-10-26T13:48:01.953Z,12.63
2022-10-26T13:50:38.557Z,13.47
2022-10-26T13:53:23.416Z,10.93
2022-10-26T13:56:06.267Z,10.35
2022-10-26T13:58:43.467Z,10.30
2022-10-26T14:01:11.830Z,12.15
2022-10-26T14:03:41.170Z,13.73
2022-10-26T14:06:17.620Z,12.63
2022-10-26T14:08:47.615Z,12.10
2022-10-26T14:11:31.004Z,11.15
2022-10-26T14:13:58.795Z,9.50
2022-10-26T14:16:30.649Z,9.35
2022-10-26T14:18:58.430Z,6.30
2022-10-26T14:21:26.149Z,6.10
2022-10-26T14:23:58.999Z,6.68
2022-10-26T14:26:31.454Z,5.80
2022-10-26T14:29:01.784Z,5.97
2022-10-26T14:31:34.640Z,6.07
2022-10-26T14:34:05.687Z,5.43
2022-10-26T14:37:01.197Z,5.95
2022-10-26T14:39:48.683Z,5.82
2022-10-26T14:42:41.233Z,5.82
2022-10-26T14:45:29.886Z,5.80
2022-10-26T14:48:27.725Z,6.40
2022-10-26T14:53:51.710Z,6.32
2022-10-26T14:56:32.164Z,7.35
2022-10-26T14:59:00.150Z,8.32
2022-10-26T15:01:36.294Z,7.25
2022-10-26T15:04:23.092Z,7.88
2022-10-26T15:09:43.961Z,8.10
2022-10-26T15:12:37.250Z,9.57
2022-10-26T15:15:17.838Z,8.60
2022-10-26T15:17:55.928Z,8.40
2022-10-26T15:20:31.351Z,8.60
2022-10-26T15:23:02.008Z,9.07
2022-10-26T15:25:34.105Z,8.63
2022-10-26T15:28:12.559Z,8.45
2022-10-26T15:31:01.235Z,8.23
2022-10-26T15:33:29.640Z,9.18
2022-10-26T15:36:18.360Z,10.00
2022-10-26T15:38:48.256Z,8.93
2022-10-26T15:41:31.268Z,11.40
2022-10-26T15:44:06.129Z,14.23
2022-10-26T15:46:36.304Z,21.70
2022-10-26T15:49:09.601Z,22.55
2022-10-26T15:51:39.072Z,21.10
2022-10-26T15:54:06.919Z,20.50
2022-10-26T15:56:34.601Z,16.00
2022-10-26T15:59:02.073Z,12.77
2022-10-26T16:01:31.576Z,12.70
2022-10-26T16:04:00.290Z,12.10
2022-10-26T16:06:37.794Z,11.07
2022-10-26T16:57:11.261Z,20.10
2022-10-26T18:06:54.202Z,13.57
2022-10-26T18:09:24.466Z,14.23
2022-10-26T18:11:54.914Z,18.15
2022-10-26T18:14:23.441Z,20.70
2022-10-26T18:16:51.170Z,18.63
2022-10-26T18:19:20.981Z,16.85
2022-10-26T18:21:48.500Z,13.48
2022-10-26T18:24:17.040Z,13.75
2022-10-26T18:26:44.945Z,11.80
2022-10-26T18:29:14.058Z,10.93
2022-10-26T18:31:41.688Z,10.10
2022-10-26T18:34:11.504Z,10.00
2022-10-26T18:36:39.842Z,11.23
2022-10-26T18:39:11.535Z,11.38
2022-10-26T18:41:39.257Z,15.18
2022-10-26T18:44:06.787Z,16.80
2022-10-26T18:46:45.563Z,17.70
2022-10-26T18:49:16.660Z,18.08
2022-10-26T18:51:44.182Z,17.20
2022-10-26T18:54:11.953Z,18.15
2022-10-26T18:56:39.794Z,18.88
2022-10-26T18:59:08.185Z,20.02
2022-10-26T19:01:40.073Z,24.67
2022-10-26T19:04:10.179Z,24.20
2022-10-26T19:06:46.672Z,20.70
2022-10-26T19:09:19.336Z,22.23
2022-10-26T19:11:46.872Z,22.45
2022-10-26T19:14:14.509Z,22.95
2022-10-26T19:16:46.700Z,23.20
2022-10-26T19:19:16.457Z,23.30
2022-10-26T19:21:45.452Z,21.80
2022-10-26T19:24:20.056Z,22.58
2022-10-26T19:26:50.507Z,26.48
2022-10-26T19:29:19.714Z,29.40
2022-10-26T19:31:51.163Z,26.92
2022-10-26T19:34:19.204Z,25.33
2022-10-26T19:36:47.443Z,25.15
2022-10-26T19:39:17.420Z,22.45
2022-10-26T19:41:46.383Z,20.08
2022-10-26T19:44:15.069Z,20.02
2022-10-26T19:46:43.877Z,19.35
2022-10-26T19:49:13.058Z,18.65
2022-10-26T19:51:40.723Z,17.48
2022-10-26T19:54:08.759Z,21.00
2022-10-26T19:56:37.741Z,22.13
2022-10-26T19:59:05.576Z,19.40
2022-10-26T20:01:33.597Z,20.13
2022-10-26T20:04:02.921Z,25.70
2022-10-26T20:06:31.330Z,22.95
2022-10-26T20:09:00.184Z,20.95
2022-10-26T20:11:28.047Z,21.67
2022-10-26T20:13:56.606Z,21.23
2022-10-26T20:16:24.541Z,21.98
2022-10-26T20:18:52.074Z,28.90
2022-10-26T20:21:21.056Z,25.73
2022-10-26T20:23:48.520Z,24.02
2022-10-26T20:26:19.229Z,25.00
2022-10-26T20:28:49.047Z,22.23
2022-10-26T20:31:19.453Z,23.98
2022-10-26T20:33:55.443Z,28.83
2022-10-26T20:36:23.048Z,25.60
2022-10-26T20:38:51.085Z,24.80
2022-10-26T20:41:19.029Z,25.90
2022-10-26T20:43:46.873Z,23.75
2022-10-26T20:46:26.395Z,22.55
2022-10-26T20:48:55.365Z,22.98
2022-10-26T20:52:08.175Z,21.67
2022-10-26T20:54:39.198Z,19.95
2022-10-26T20:57:12.759Z,17.23
2022-10-26T20:59:48.022Z,16.15
2022-10-26T21:02:17.939Z,16.65
2022-10-26T21:04:46.020Z,16.58
2022-10-26T21:07:13.475Z,17.40
2022-10-26T21:09:40.957Z,17.23
2022-10-26T21:12:08.584Z,16.33
2022-10-26T21:14:40.819Z,15.95
2022-10-26T21:17:09.545Z,14.82
2022-10-26T21:19:37.846Z,13.77
2022-10-26T21:22:08.137Z,15.40
2022-10-26T21:27:04.021Z,15.45
2022-10-26T21:29:31.478Z,16.65
2022-10-26T21:31:59.039Z,14.95
2022-10-26T21:34:26.529Z,15.15
2022-10-26T21:36:54.007Z,14.63
2022-10-26T21:39:21.421Z,14.77
2022-10-26T21:41:48.842Z,14.88
2022-10-26T21:44:32.665Z,15.52
2022-10-26T21:47:04.518Z,15.82
2022-10-26T21:49:32.165Z,15.98
2022-10-26T21:51:59.597Z,16.40
2022-10-26T21:54:27.010Z,18.00
2022-10-26T21:56:54.589Z,16.70
2022-10-26T21:59:22.156Z,15.50
2022-10-26T22:01:49.711Z,14.32
2022-10-26T22:04:17.347Z,13.77
2022-10-26T22:06:44.855Z,14.38
2022-10-26T22:09:12.384Z,14.63
2022-10-26T22:11:39.783Z,15.07
2022-10-26T22:14:07.280Z,15.40
2022-10-26T22:16:34.920Z,14.98
2022-10-26T22:19:07.927Z,16.20
2022-10-26T22:21:39.734Z,15.60
2022-10-26T22:24:08.127Z,15.73
2022-10-26T22:26:37.072Z,16.35
2022-10-26T22:29:05.483Z,16.20
2022-10-26T22:31:37.329Z,16.45
2022-10-26T22:34:08.666Z,16.58
2022-10-26T22:36:36.441Z,17.13
2022-10-26T22:39:07.687Z,17.13
2022-10-26T22:41:35.114Z,16.88
2022-10-26T22:44:02.493Z,16.60
2022-10-26T22:46:30.177Z,17.48
2022-10-26T22:49:02.462Z,18.15
2022-10-26T22:51:37.689Z,18.63
2022-10-26T22:54:06.051Z,17.88
2022-10-26T22:56:36.468Z,20.58
2022-10-26T22:59:05.548Z,20.45
2022-10-26T23:01:37.616Z,20.67
2022-10-26T23:04:05.549Z,20.27
2022-10-26T23:06:33.728Z,20.38
2022-10-26T23:09:01.302Z,20.98
2022-10-26T23:11:30.307Z,18.48
2022-10-26T23:14:01.269Z,19.45
2022-10-26T23:16:30.376Z,18.67
2022-10-26T23:18:59.515Z,18.05
2022-10-26T23:21:29.523Z,18.30
2022-10-26T23:23:57.964Z,19.30
2022-10-26T23:26:25.710Z,20.13
2022-10-26T23:28:53.147Z,17.63
2022-10-26T23:31:27.347Z,16.65
2022-10-26T23:36:24.712Z,16.33
2022-10-26T23:38:52.133Z,18.13
2022-10-26T23:41:19.608Z,16.33
2022-10-26T23:43:47.124Z,16.88
2022-10-26T23:48:56.064Z,16.77
2022-10-26T23:51:23.606Z,17.38
2022-10-26T23:53:51.067Z,18.33
2022-10-26T23:56:18.523Z,17.55
2022-10-26T23:58:50.977Z,18.00
